createdAt,value
2019-04-20T00:00:57.934Z,1.55
2019-04-20T00:02:08.358Z,1.90
2019-04-20T00:03:05.776Z,1.87
2019-04-20T00:04:10.828Z,1.80
2019-04-20T00:05:15.032Z,1.80
2019-04-20T00:06:19.527Z,1.80
2019-04-20T00:07:24.667Z,2.08
2019-04-20T00:08:31.464Z,1.60
2019-04-20T00:09:37.122Z,1.62
2019-04-20T00:10:52.268Z,1.40
2019-04-20T00:11:59.214Z,2.00
2019-04-20T00:13:05.887Z,1.87
2019-04-20T00:14:05.587Z,1.62
2019-04-20T00:15:04.823Z,1.98
2019-04-20T00:16:10.308Z,1.47
2019-04-20T00:17:15.866Z,1.57
2019-04-20T00:18:19.228Z,1.92
2019-04-20T00:19:30.221Z,1.87
2019-04-20T00:20:34.004Z,1.85
2019-04-20T00:21:53.399Z,1.80
2019-04-20T00:23:19.880Z,2.00
2019-04-20T00:24:26.896Z,1.65
2019-04-20T00:26:00.443Z,2.05
2019-04-20T00:28:19.908Z,1.92
2019-04-20T00:30:32.524Z,1.77
2019-04-20T00:31:34.076Z,1.95
2019-04-20T00:32:41.319Z,1.50
2019-04-20T00:33:42.240Z,2.10
2019-04-20T00:34:38.235Z,1.85
2019-04-20T00:35:38.052Z,2.12
2019-04-20T00:36:41.183Z,2.02
2019-04-20T00:37:44.577Z,2.00
2019-04-20T00:38:52.969Z,1.90
2019-04-20T00:39:52.936Z,1.77
2019-04-20T00:41:02.163Z,2.00
2019-04-20T00:42:06.118Z,1.70
2019-04-20T00:43:06.649Z,1.87
2019-04-20T00:44:16.161Z,1.92
2019-04-20T00:45:19.116Z,1.82
2019-04-20T00:46:27.886Z,2.15
2019-04-20T00:47:34.409Z,1.90
2019-04-20T00:48:40.434Z,2.15
2019-04-20T00:49:47.328Z,2.20
2019-04-20T00:50:49.106Z,2.12
2019-04-20T00:52:10.244Z,1.70
2019-04-20T00:52:59.086Z,2.37
2019-04-20T00:53:53.834Z,2.17
2019-04-20T00:54:55.921Z,1.90
2019-04-20T00:55:59.173Z,1.90
2019-04-20T00:57:13.540Z,2.08
2019-04-20T00:58:18.562Z,2.30
2019-04-20T00:59:25.811Z,2.00
2019-04-20T01:00:32.787Z,2.12
2019-04-20T01:01:46.257Z,1.87
2019-04-20T01:02:36.132Z,2.25
2019-04-20T01:03:47.302Z,1.80
2019-04-20T01:04:53.624Z,2.10
2019-04-20T01:06:17.672Z,2.15
2019-04-20T01:07:24.212Z,1.85
2019-04-20T01:08:25.519Z,2.35
2019-04-20T01:10:04.948Z,2.50
2019-04-20T01:11:08.279Z,2.42
2019-04-20T01:12:16.399Z,1.90
2019-04-20T01:13:19.808Z,2.37
2019-04-20T01:14:27.258Z,2.58
2019-04-20T01:15:37.532Z,1.92
2019-04-20T01:16:38.619Z,2.05
2019-04-20T01:17:37.893Z,2.12
2019-04-20T01:18:43.716Z,1.80
2019-04-20T01:19:45.294Z,2.20
2019-04-20T01:20:49.181Z,2.20
2019-04-20T01:21:59.760Z,2.15
2019-04-20T01:23:04.773Z,1.98
2019-04-20T01:24:06.284Z,1.90
2019-04-20T01:25:13.961Z,2.33
2019-04-20T01:26:16.375Z,2.52
2019-04-20T01:27:32.442Z,2.10
2019-04-20T01:28:37.557Z,2.15
2019-04-20T01:29:36.874Z,2.40
2019-04-20T01:30:37.703Z,1.95
2019-04-20T01:31:51.539Z,2.20
2019-04-20T01:32:57.547Z,1.80
2019-04-20T01:33:56.596Z,1.80
2019-04-20T01:34:59.863Z,2.58
2019-04-20T01:36:14.714Z,2.33
2019-04-20T01:37:14.731Z,2.35
2019-04-20T01:38:20.956Z,2.52
2019-04-20T01:39:17.268Z,2.58
2019-04-20T01:40:14.736Z,1.67
2019-04-20T01:41:18.241Z,1.75
2019-04-20T01:42:21.375Z,2.25
2019-04-20T01:43:24.760Z,2.27
2019-04-20T01:44:35.330Z,1.82
2019-04-20T01:45:36.257Z,2.00
2019-04-20T01:46:39.163Z,2.37
2019-04-20T01:47:47.265Z,2.10
2019-04-20T01:48:48.098Z,2.05
2019-04-20T01:49:57.497Z,2.45
2019-04-20T01:51:03.790Z,2.52
2019-04-20T01:52:10.769Z,2.00
2019-04-20T01:53:19.011Z,2.33
2019-04-20T01:54:27.516Z,1.90
2019-04-20T01:55:43.964Z,2.40
2019-04-20T01:56:40.306Z,2.35
2019-04-20T01:57:56.316Z,2.20
2019-04-20T01:59:21.196Z,2.27
2019-04-20T02:00:36.538Z,1.92
2019-04-20T02:01:50.638Z,2.30
2019-04-20T02:03:01.366Z,2.02
2019-04-20T02:04:07.367Z,2.12
2019-04-20T02:05:20.683Z,1.90
2019-04-20T02:06:21.376Z,2.42
2019-04-20T02:07:29.061Z,1.85
2019-04-20T02:08:29.408Z,2.10
2019-04-20T02:09:33.003Z,2.05
2019-04-20T02:10:45.974Z,1.80
2019-04-20T02:11:45.167Z,2.15
2019-04-20T02:12:51.362Z,2.40
2019-04-20T02:13:57.331Z,2.22
2019-04-20T02:15:02.719Z,2.33
2019-04-20T02:16:12.888Z,2.00
2019-04-20T02:17:16.745Z,2.08
2019-04-20T02:18:23.148Z,2.40
2019-04-20T02:19:32.127Z,2.20
2019-04-20T02:20:37.616Z,2.58
2019-04-20T02:21:43.781Z,2.50
2019-04-20T02:22:50.638Z,2.30
2019-04-20T02:23:47.423Z,2.60
2019-04-20T02:24:40.765Z,2.55
2019-04-20T02:25:44.001Z,2.22
2019-04-20T02:26:47.324Z,2.47
2019-04-20T02:27:55.021Z,2.65
2019-04-20T02:29:19.059Z,2.22
2019-04-20T02:30:30.158Z,2.45
2019-04-20T02:31:43.916Z,2.25
2019-04-20T02:32:40.799Z,2.65
2019-04-20T02:33:53.766Z,2.20
2019-04-20T02:35:07.171Z,2.20
2019-04-20T02:37:56.873Z,2.10
2019-04-20T02:39:57.906Z,2.75
2019-04-20T02:41:11.471Z,2.45
2019-04-20T02:42:03.867Z,2.17
2019-04-20T02:43:07.884Z,2.30
2019-04-20T02:44:14.367Z,2.05
2019-04-20T02:46:14.794Z,2.00
2019-04-20T02:47:41.445Z,2.30
2019-04-20T02:48:21.715Z,2.10
2019-04-20T02:50:36.505Z,2.50
2019-04-20T02:51:46.868Z,2.37
2019-04-20T02:52:56.899Z,2.55
2019-04-20T02:54:03.059Z,2.60
2019-04-20T02:55:04.161Z,2.10
2019-04-20T02:56:04.705Z,2.50
2019-04-20T02:58:10.231Z,2.67
2019-04-20T02:59:48.623Z,2.27
2019-04-20T03:00:25.350Z,2.37
2019-04-20T03:01:35.879Z,2.17
2019-04-20T03:02:41.547Z,2.02
2019-04-20T03:03:35.961Z,2.20
2019-04-20T03:04:39.995Z,2.22
2019-04-20T03:05:43.268Z,2.40
2019-04-20T03:07:00.932Z,2.75
2019-04-20T03:08:04.351Z,2.27
2019-04-20T03:09:09.005Z,2.33
2019-04-20T03:10:15.617Z,2.08
2019-04-20T03:11:22.484Z,2.90
2019-04-20T03:12:28.904Z,2.40
2019-04-20T03:13:27.022Z,2.30
2019-04-20T03:14:29.293Z,2.55
2019-04-20T03:15:37.683Z,2.20
2019-04-20T03:16:40.443Z,2.52
2019-04-20T03:17:46.035Z,3.15
2019-04-20T03:18:44.638Z,2.60
2019-04-20T03:19:51.304Z,3.08
2019-04-20T03:20:58.469Z,2.22
2019-04-20T03:22:09.823Z,2.40
2019-04-20T03:23:26.540Z,2.25
2019-04-20T03:24:23.466Z,2.80
2019-04-20T03:25:35.822Z,2.35
2019-04-20T03:26:56.630Z,2.45
2019-04-20T03:28:05.348Z,2.20
2019-04-20T03:29:09.839Z,2.70
2019-04-20T03:32:25.686Z,2.92
2019-04-20T03:33:24.549Z,2.40
2019-04-20T03:35:20.961Z,2.45
2019-04-20T03:36:25.729Z,2.50
2019-04-20T03:37:27.941Z,2.58
2019-04-20T03:38:30.293Z,2.10
2019-04-20T03:39:28.479Z,2.40
2019-04-20T03:40:29.402Z,2.50
2019-04-20T03:41:30.219Z,2.50
2019-04-20T03:42:25.071Z,2.45
2019-04-20T03:43:28.709Z,2.37
2019-04-20T03:44:35.826Z,2.42
2019-04-20T03:45:47.538Z,2.70
2019-04-20T03:46:51.792Z,2.77
2019-04-20T03:47:58.787Z,2.33
2019-04-20T03:49:11.851Z,2.17
2019-04-20T03:50:18.691Z,2.17
2019-04-20T03:51:23.617Z,2.42
2019-04-20T03:52:44.978Z,3.08
2019-04-20T03:54:02.743Z,2.33
2019-04-20T03:55:34.297Z,2.12
2019-04-20T03:56:54.441Z,2.60
2019-04-20T03:58:14.231Z,2.50
2019-04-20T03:59:50.714Z,2.75
2019-04-20T04:01:03.873Z,3.15
2019-04-20T04:02:58.013Z,2.35
2019-04-20T04:04:05.190Z,2.30
2019-04-20T04:05:06.224Z,2.35
2019-04-20T04:06:08.584Z,2.00
2019-04-20T04:07:02.743Z,2.33
2019-04-20T04:08:15.912Z,2.37
2019-04-20T04:09:20.191Z,2.87
2019-04-20T04:10:29.234Z,2.45
2019-04-20T04:11:35.295Z,2.58
2019-04-20T04:13:01.090Z,2.35
2019-04-20T04:14:05.033Z,2.22
2019-04-20T04:15:08.479Z,2.55
2019-04-20T04:16:14.806Z,2.35
2019-04-20T04:17:21.004Z,2.72
2019-04-20T04:18:28.103Z,2.50
2019-04-20T04:19:32.866Z,2.30
2019-04-20T04:20:40.741Z,2.55
2019-04-20T04:21:46.860Z,2.72
2019-04-20T04:22:56.458Z,2.50
2019-04-20T04:23:58.892Z,2.72
2019-04-20T04:25:02.647Z,2.62
2019-04-20T04:26:10.121Z,2.90
2019-04-20T04:27:10.525Z,2.00
2019-04-20T04:28:20.674Z,2.62
2019-04-20T04:29:30.377Z,2.42
2019-04-20T04:30:26.326Z,2.87
2019-04-20T04:31:36.322Z,2.70
2019-04-20T04:33:07.023Z,3.15
2019-04-20T04:33:56.943Z,2.52
2019-04-20T04:34:49.613Z,2.55
2019-04-20T04:35:54.623Z,2.72
2019-04-20T04:36:59.318Z,2.62
2019-04-20T04:38:02.583Z,2.52
2019-04-20T04:39:08.815Z,2.80
2019-04-20T04:40:20.976Z,2.50
2019-04-20T04:41:35.004Z,2.42
2019-04-20T04:42:25.128Z,2.20
2019-04-20T04:43:30.034Z,2.50
2019-04-20T04:44:26.472Z,2.42
2019-04-20T04:45:19.377Z,2.80
2019-04-20T04:46:20.866Z,2.30
2019-04-20T04:47:23.989Z,2.62
2019-04-20T04:48:31.977Z,3.02
2019-04-20T04:49:36.548Z,2.67
2019-04-20T04:50:44.649Z,2.33
2019-04-20T04:51:50.190Z,2.33
2019-04-20T04:52:54.749Z,2.40
2019-04-20T04:53:58.071Z,2.58
2019-04-20T04:55:06.521Z,2.33
2019-04-20T04:56:05.784Z,2.15
2019-04-20T04:57:03.429Z,2.42
2019-04-20T04:58:06.450Z,2.95
2019-04-20T04:59:10.610Z,2.95
2019-04-20T05:00:19.830Z,2.60
2019-04-20T05:01:24.866Z,2.35
2019-04-20T05:02:29.976Z,2.60
2019-04-20T05:03:44.922Z,2.52
2019-04-20T05:05:19.386Z,2.45
2019-04-20T05:06:26.412Z,2.40
2019-04-20T05:07:43.752Z,2.40
2019-04-20T05:08:38.723Z,2.72
2019-04-20T05:09:38.334Z,2.67
2019-04-20T05:10:41.650Z,2.65
2019-04-20T05:11:44.735Z,2.37
2019-04-20T05:12:48.182Z,2.42
2019-04-20T05:13:58.548Z,2.47
2019-04-20T05:15:06.045Z,2.52
2019-04-20T05:16:14.743Z,2.47
2019-04-20T05:17:20.814Z,2.05
2019-04-20T05:18:36.058Z,2.30
2019-04-20T05:19:36.922Z,3.10
2019-04-20T05:20:43.807Z,2.25
2019-04-20T05:22:09.509Z,2.75
2019-04-20T05:23:17.801Z,2.55
2019-04-20T05:24:28.862Z,2.27
2019-04-20T05:26:03.470Z,2.40
2019-04-20T05:27:09.370Z,2.10
2019-04-20T05:28:13.085Z,2.20
2019-04-20T05:29:08.537Z,2.50
2019-04-20T05:30:07.783Z,2.70
2019-04-20T05:31:12.237Z,2.50
2019-04-20T05:32:23.624Z,2.25
2019-04-20T05:33:28.198Z,2.37
2019-04-20T05:34:45.354Z,2.50
2019-04-20T05:35:49.891Z,3.02
2019-04-20T05:36:49.399Z,2.90
2019-04-20T05:38:13.000Z,2.62
2019-04-20T05:39:10.196Z,2.45
2019-04-20T05:40:11.877Z,2.62
2019-04-20T05:41:12.711Z,3.10
2019-04-20T05:42:19.175Z,2.30
2019-04-20T05:43:26.469Z,2.67
2019-04-20T05:44:39.356Z,2.22
2019-04-20T05:45:33.961Z,2.30
2019-04-20T05:46:49.222Z,2.05
2019-04-20T05:47:50.806Z,2.55
2019-04-20T05:49:00.307Z,2.30
2019-04-20T05:49:53.703Z,2.40
2019-04-20T05:51:01.781Z,2.75
2019-04-20T05:52:17.432Z,2.62
2019-04-20T05:53:16.134Z,2.72
2019-04-20T05:54:23.347Z,2.00
2019-04-20T05:55:30.476Z,2.25
2019-04-20T05:56:31.659Z,2.72
2019-04-20T05:57:36.199Z,2.55
2019-04-20T05:58:41.946Z,2.47
2019-04-20T05:59:47.077Z,2.60
2019-04-20T06:00:48.401Z,2.35
2019-04-20T06:01:58.859Z,2.20
2019-04-20T06:02:54.866Z,2.37
2019-04-20T06:03:58.238Z,2.40
2019-04-20T06:05:11.395Z,2.52
2019-04-20T06:06:08.015Z,2.42
2019-04-20T06:07:15.271Z,2.42
2019-04-20T06:08:28.835Z,2.67
2019-04-20T06:09:28.666Z,2.30
2019-04-20T06:10:32.567Z,2.55
2019-04-20T06:11:34.680Z,2.72
2019-04-20T06:12:37.327Z,2.52
2019-04-20T06:13:53.495Z,2.55
2019-04-20T06:15:08.011Z,2.33
2019-04-20T06:16:45.775Z,2.40
2019-04-20T06:18:02.433Z,2.55
2019-04-20T06:19:20.141Z,2.10
2019-04-20T06:20:11.165Z,2.62
2019-04-20T06:21:29.427Z,3.00
2019-04-20T06:23:01.353Z,2.83
2019-04-20T06:25:26.101Z,3.02
2019-04-20T06:26:33.597Z,2.67
2019-04-20T06:27:14.890Z,2.60
2019-04-20T06:28:19.741Z,2.25
2019-04-20T06:29:23.575Z,2.35
2019-04-20T06:30:27.978Z,2.37
2019-04-20T06:31:38.175Z,2.47
2019-04-20T06:33:24.517Z,2.70
2019-04-20T06:34:35.517Z,2.80
2019-04-20T06:35:51.662Z,2.70
2019-04-20T06:36:41.353Z,2.40
2019-04-20T06:37:48.628Z,2.35
2019-04-20T06:38:56.246Z,2.50
2019-04-20T06:39:54.388Z,2.58
2019-04-20T06:41:05.320Z,2.40
2019-04-20T06:42:15.203Z,3.35
2019-04-20T06:43:05.087Z,2.50
2019-04-20T06:44:19.040Z,2.20
2019-04-20T06:45:22.618Z,2.30
2019-04-20T06:46:22.770Z,2.47
2019-04-20T06:47:31.832Z,3.00
2019-04-20T06:48:37.051Z,3.08
2019-04-20T06:49:33.403Z,2.10
2019-04-20T06:50:36.628Z,2.20
2019-04-20T06:52:09.971Z,3.00
2019-04-20T06:53:41.137Z,2.62
2019-04-20T06:55:05.082Z,3.27
2019-04-20T06:56:24.781Z,2.70
2019-04-20T06:57:29.226Z,2.75
2019-04-20T06:58:38.973Z,2.75
2019-04-20T06:59:40.067Z,3.02
2019-04-20T07:00:38.331Z,2.62
2019-04-20T07:01:52.985Z,2.80
2019-04-20T07:02:58.967Z,2.60
2019-04-20T07:04:02.104Z,2.35
2019-04-20T07:04:57.906Z,2.27
2019-04-20T07:06:17.454Z,2.27
2019-04-20T07:07:11.382Z,2.75
2019-04-20T07:08:27.271Z,3.30
2019-04-20T07:09:21.843Z,2.77
2019-04-20T07:11:26.616Z,2.35
2019-04-20T07:12:27.173Z,2.60
2019-04-20T07:13:27.964Z,2.83
2019-04-20T07:14:33.999Z,2.83
2019-04-20T07:15:46.521Z,2.70
2019-04-20T07:17:15.756Z,2.60
2019-04-20T07:18:08.127Z,2.83
2019-04-20T07:19:18.940Z,3.00
2019-04-20T07:20:26.046Z,2.50
2019-04-20T07:22:12.289Z,3.05
2019-04-20T07:23:11.629Z,2.60
2019-04-20T07:24:11.773Z,2.47
2019-04-20T07:25:14.375Z,2.98
2019-04-20T07:26:24.408Z,2.77
2019-04-20T07:27:25.917Z,2.30
2019-04-20T07:28:36.644Z,2.80
2019-04-20T07:29:36.878Z,2.60
2019-04-20T07:30:35.464Z,2.52
2019-04-20T07:31:39.376Z,2.85
2019-04-20T07:32:52.735Z,3.10
2019-04-20T07:33:52.174Z,2.67
2019-04-20T07:34:55.736Z,2.90
2019-04-20T07:35:56.197Z,2.67
2019-04-20T07:37:43.218Z,2.52
2019-04-20T07:38:24.318Z,2.83
2019-04-20T07:39:26.413Z,2.52
2019-04-20T07:40:24.629Z,2.87
2019-04-20T07:41:33.178Z,2.42
2019-04-20T07:42:34.840Z,2.70
2019-04-20T07:43:41.562Z,2.85
2019-04-20T07:44:48.855Z,2.77
2019-04-20T07:45:46.687Z,2.55
2019-04-20T07:48:01.714Z,2.62
2019-04-20T07:49:01.870Z,2.58
2019-04-20T07:50:03.712Z,2.30
2019-04-20T07:51:01.185Z,2.67
2019-04-20T07:51:55.560Z,2.47
2019-04-20T07:53:14.670Z,2.70
2019-04-20T07:54:31.617Z,2.65
2019-04-20T07:56:37.264Z,2.70
2019-04-20T07:57:34.113Z,3.25
2019-04-20T07:58:31.682Z,3.33
2019-04-20T07:59:39.696Z,2.70
2019-04-20T08:01:02.572Z,2.85
2019-04-20T08:02:23.977Z,2.90
2019-04-20T08:03:45.343Z,3.27
2019-04-20T08:04:52.473Z,3.05
2019-04-20T08:05:55.277Z,2.47
2019-04-20T08:06:55.671Z,2.52
2019-04-20T08:08:14.889Z,2.85
2019-04-20T08:09:16.102Z,2.50
2019-04-20T08:10:11.435Z,2.98
2019-04-20T08:11:30.298Z,2.92
2019-04-20T08:13:09.527Z,2.58
2019-04-20T08:14:16.296Z,2.65
2019-04-20T08:15:16.604Z,2.83
2019-04-20T08:16:14.576Z,2.67
2019-04-20T08:17:30.490Z,2.83
2019-04-20T08:18:27.931Z,2.62
2019-04-20T08:19:27.279Z,3.12
2019-04-20T08:20:36.888Z,2.77
2019-04-20T08:22:46.207Z,2.85
2019-04-20T08:23:44.102Z,2.87
2019-04-20T08:24:48.466Z,2.60
2019-04-20T08:25:47.416Z,3.15
2019-04-20T08:26:49.684Z,3.20
2019-04-20T08:28:01.640Z,2.50
2019-04-20T08:29:26.628Z,3.30
2019-04-20T08:30:46.625Z,2.83
2019-04-20T08:32:14.080Z,3.62
2019-04-20T08:33:19.860Z,2.95
2019-04-20T08:34:34.086Z,3.12
2019-04-20T08:35:42.319Z,2.98
2019-04-20T08:36:39.198Z,3.20
2019-04-20T08:37:48.943Z,2.58
2019-04-20T08:39:58.343Z,2.70
2019-04-20T08:40:53.639Z,3.12
2019-04-20T08:42:01.966Z,3.08
2019-04-20T08:43:24.006Z,3.30
2019-04-20T08:45:16.782Z,3.30
2019-04-20T08:46:20.416Z,3.75
2019-04-20T08:47:35.207Z,3.33
2019-04-20T08:48:31.388Z,3.27
2019-04-20T08:49:35.046Z,3.42
2019-04-20T08:50:34.076Z,3.17
2019-04-20T08:51:49.775Z,3.10
2019-04-20T08:53:51.847Z,2.95
2019-04-20T08:54:57.818Z,2.98
2019-04-20T08:55:55.826Z,2.75
2019-04-20T08:56:52.198Z,3.00
2019-04-20T08:57:51.536Z,3.33
2019-04-20T08:58:55.073Z,2.95
2019-04-20T09:00:01.536Z,2.77
2019-04-20T09:01:06.562Z,2.95
2019-04-20T09:02:11.534Z,3.05
2019-04-20T09:03:18.008Z,2.90
2019-04-20T09:04:20.766Z,3.00
2019-04-20T09:05:34.935Z,3.37
2019-04-20T09:06:41.980Z,3.05
2019-04-20T09:07:33.695Z,2.72
2019-04-20T09:08:46.578Z,2.70
2019-04-20T09:10:03.096Z,2.98
2019-04-20T09:11:00.017Z,3.15
2019-04-20T09:12:06.133Z,3.08
2019-04-20T09:13:05.504Z,3.25
2019-04-20T09:14:18.537Z,2.75
2019-04-20T09:15:23.252Z,2.58
2019-04-20T09:16:38.167Z,2.60
2019-04-20T09:17:40.956Z,3.65
2019-04-20T09:18:47.692Z,2.60
2019-04-20T09:19:52.733Z,2.92
2019-04-20T09:20:55.833Z,3.10
2019-04-20T09:22:26.670Z,3.00
2019-04-20T09:23:38.086Z,3.02
2019-04-20T09:24:49.078Z,3.33
2019-04-20T09:26:47.751Z,3.02
2019-04-20T09:27:48.752Z,2.90
2019-04-20T09:29:04.144Z,2.70
2019-04-20T09:30:13.638Z,3.05
2019-04-20T09:31:22.701Z,2.80
2019-04-20T09:32:28.649Z,2.47
2019-04-20T09:33:48.469Z,3.02
2019-04-20T09:35:53.384Z,3.52
2019-04-20T09:37:25.478Z,3.02
2019-04-20T09:38:26.961Z,3.35
2019-04-20T09:39:30.417Z,3.22
2019-04-20T09:40:45.793Z,3.30
2019-04-20T09:42:00.614Z,3.27
2019-04-20T09:43:13.986Z,2.90
2019-04-20T09:44:17.699Z,3.15
2019-04-20T09:45:35.442Z,3.10
2019-04-20T09:46:30.963Z,2.87
2019-04-20T09:47:41.168Z,3.02
2019-04-20T09:48:42.925Z,3.50
2019-04-20T09:49:57.089Z,2.80
2019-04-20T09:51:05.850Z,3.25
2019-04-20T09:52:08.090Z,2.90
2019-04-20T09:53:08.969Z,3.45
2019-04-20T09:54:18.885Z,2.87
2019-04-20T09:55:18.564Z,3.35
2019-04-20T09:56:23.996Z,3.83
2019-04-20T09:57:34.017Z,3.20
2019-04-20T09:58:31.983Z,3.17
2019-04-20T09:59:44.685Z,2.70
2019-04-20T10:00:54.103Z,3.27
2019-04-20T10:01:50.780Z,3.30
2019-04-20T10:02:50.525Z,2.95
2019-04-20T10:03:54.718Z,2.87
2019-04-20T10:04:57.783Z,3.05
2019-04-20T10:06:01.334Z,3.62
2019-04-20T10:07:09.591Z,3.58
2019-04-20T10:08:10.016Z,2.85
2019-04-20T10:09:13.644Z,3.05
2019-04-20T10:10:26.758Z,3.47
2019-04-20T10:11:21.442Z,3.30
2019-04-20T10:12:25.939Z,3.30
2019-04-20T10:13:30.032Z,3.25
2019-04-20T10:14:33.171Z,3.02
2019-04-20T10:15:37.449Z,3.05
2019-04-20T10:16:40.385Z,2.98
2019-04-20T10:17:43.668Z,3.25
2019-04-20T10:18:50.557Z,3.52
2019-04-20T10:19:51.415Z,3.27
2019-04-20T10:20:54.178Z,3.22
2019-04-20T10:21:57.030Z,3.20
2019-04-20T10:23:00.513Z,3.20
2019-04-20T10:24:03.297Z,2.83
2019-04-20T10:25:06.642Z,3.40
2019-04-20T10:26:09.420Z,3.55
2019-04-20T10:27:12.625Z,3.58
2019-04-20T10:28:15.890Z,3.20
2019-04-20T10:29:19.601Z,3.58
2019-04-20T10:30:23.036Z,3.30
2019-04-20T10:31:26.454Z,3.90
2019-04-20T10:32:36.295Z,4.17
2019-04-20T10:33:33.953Z,3.87
2019-04-20T10:34:36.870Z,3.22
2019-04-20T10:35:39.729Z,3.33
2019-04-20T10:37:05.826Z,3.60
2019-04-20T10:38:19.022Z,3.33
2019-04-20T10:39:22.569Z,3.25
2019-04-20T10:40:39.345Z,3.80
2019-04-20T10:41:41.183Z,2.95
2019-04-20T10:42:36.283Z,3.70
2019-04-20T10:43:39.113Z,3.20
2019-04-20T10:44:43.003Z,4.15
2019-04-20T10:45:46.814Z,4.00
2019-04-20T10:46:51.075Z,3.60
2019-04-20T10:47:55.011Z,4.08
2019-04-20T10:49:02.798Z,4.08
2019-04-20T10:50:05.015Z,3.70
2019-04-20T10:51:08.414Z,4.10
2019-04-20T10:52:11.696Z,4.42
2019-04-20T10:53:14.784Z,4.08
2019-04-20T10:54:18.403Z,3.72
2019-04-20T10:55:21.204Z,3.70
2019-04-20T10:56:23.778Z,3.62
2019-04-20T10:57:27.797Z,3.90
2019-04-20T10:58:31.688Z,3.60
2019-04-20T10:59:34.512Z,3.98
2019-04-20T11:00:39.739Z,2.95
2019-04-20T11:01:43.413Z,3.83
2019-04-20T11:02:50.756Z,3.77
2019-04-20T11:03:56.449Z,3.30
2019-04-20T11:04:59.241Z,3.72
2019-04-20T11:06:02.698Z,3.52
2019-04-20T11:07:05.698Z,3.00
2019-04-20T11:08:10.647Z,4.17
2019-04-20T11:09:14.321Z,3.17
2019-04-20T11:10:25.382Z,3.40
2019-04-20T11:11:26.868Z,3.12
2019-04-20T11:12:28.448Z,3.90
2019-04-20T11:13:31.182Z,3.58
2019-04-20T11:14:40.073Z,3.12
2019-04-20T11:15:42.132Z,3.33
2019-04-20T11:16:46.572Z,3.05
2019-04-20T11:17:49.401Z,3.05
2019-04-20T11:18:53.498Z,4.05
2019-04-20T11:19:57.154Z,3.30
2019-04-20T11:21:01.451Z,3.35
2019-04-20T11:22:04.390Z,3.47
2019-04-20T11:23:08.438Z,3.47
2019-04-20T11:24:12.238Z,3.27
2019-04-20T11:25:16.479Z,3.35
2019-04-20T11:26:20.226Z,3.80
2019-04-20T11:27:23.146Z,3.65
2019-04-20T11:28:26.251Z,3.40
2019-04-20T11:29:29.177Z,3.08
2019-04-20T11:30:32.189Z,3.25
2019-04-20T11:31:39.505Z,3.30
2019-04-20T11:32:40.207Z,3.00
2019-04-20T11:33:43.322Z,3.17
2019-04-20T11:34:47.120Z,3.40
2019-04-20T11:35:51.485Z,3.17
2019-04-20T11:36:55.079Z,3.60
2019-04-20T11:38:00.924Z,3.80
2019-04-20T11:39:07.188Z,3.08
2019-04-20T11:40:10.938Z,2.67
2019-04-20T11:41:21.432Z,2.83
2019-04-20T11:42:19.509Z,3.20
2019-04-20T11:43:22.348Z,3.45
2019-04-20T11:44:26.925Z,2.87
2019-04-20T11:45:30.831Z,2.85
2019-04-20T11:46:34.550Z,3.25
2019-04-20T11:47:37.735Z,3.15
2019-04-20T11:48:41.381Z,3.33
2019-04-20T11:49:44.268Z,3.62
2019-04-20T11:50:47.554Z,3.35
2019-04-20T11:51:51.758Z,2.95
2019-04-20T11:52:55.313Z,3.00
2019-04-20T11:53:58.529Z,3.00
2019-04-20T11:55:02.401Z,3.35
2019-04-20T11:56:06.669Z,3.15
2019-04-20T11:57:11.343Z,2.87
2019-04-20T11:58:14.305Z,2.52
2019-04-20T11:59:17.120Z,2.77
2019-04-20T12:00:27.994Z,3.30
2019-04-20T12:02:01.126Z,2.98
2019-04-20T12:03:25.058Z,3.05
2019-04-20T12:04:41.466Z,3.00
2019-04-20T12:05:43.197Z,3.02
2019-04-20T12:06:43.326Z,2.90
2019-04-20T12:07:55.402Z,2.72
2019-04-20T12:08:58.996Z,2.85
2019-04-20T12:10:09.152Z,3.25
2019-04-20T12:11:22.695Z,3.22
2019-04-20T12:12:28.984Z,3.20
2019-04-20T12:13:20.447Z,3.30
2019-04-20T12:14:24.685Z,3.55
2019-04-20T12:15:28.935Z,3.10
2019-04-20T12:16:32.508Z,3.85
2019-04-20T12:17:35.616Z,3.22
2019-04-20T12:18:39.992Z,3.00
2019-04-20T12:19:43.772Z,3.47
2019-04-20T12:20:47.052Z,3.22
2019-04-20T12:21:49.998Z,2.75
2019-04-20T12:22:52.686Z,3.10
2019-04-20T12:23:56.205Z,3.20
2019-04-20T12:25:00.334Z,2.80
2019-04-20T12:26:04.784Z,2.80
2019-04-20T12:27:08.841Z,3.02
2019-04-20T12:28:13.570Z,2.77
2019-04-20T12:29:16.343Z,3.12
2019-04-20T12:30:19.756Z,2.58
2019-04-20T12:31:24.678Z,3.40
2019-04-20T12:32:34.198Z,3.35
2019-04-20T12:33:32.504Z,3.12
2019-04-20T12:34:35.352Z,3.02
2019-04-20T12:35:38.431Z,2.37
2019-04-20T12:36:41.269Z,3.20
2019-04-20T12:37:45.169Z,2.45
2019-04-20T12:38:48.713Z,3.27
2019-04-20T12:39:51.514Z,2.95
2019-04-20T12:40:54.077Z,3.00
2019-04-20T12:42:00.543Z,3.05
2019-04-20T12:43:01.381Z,2.80
2019-04-20T12:44:04.136Z,2.98
2019-04-20T12:45:08.101Z,3.12
2019-04-20T12:46:14.813Z,3.02
2019-04-20T12:47:15.209Z,3.12
2019-04-20T12:48:19.740Z,2.92
2019-04-20T12:49:23.425Z,3.10
2019-04-20T12:50:27.658Z,3.25
2019-04-20T12:51:36.682Z,2.83
2019-04-20T12:52:35.034Z,2.58
2019-04-20T12:53:38.361Z,3.02
2019-04-20T12:54:42.906Z,2.75
2019-04-20T12:55:46.578Z,3.00
2019-04-20T12:56:50.635Z,2.60
2019-04-20T12:57:54.473Z,2.60
2019-04-20T12:58:57.811Z,2.33
2019-04-20T13:00:01.658Z,2.95
2019-04-20T13:01:04.713Z,2.20
2019-04-20T13:02:07.515Z,2.52
2019-04-20T13:03:11.559Z,2.72
2019-04-20T13:04:14.506Z,3.58
2019-04-20T13:05:17.641Z,2.90
2019-04-20T13:06:21.712Z,2.60
2019-04-20T13:07:25.143Z,2.20
2019-04-20T13:08:34.007Z,3.02
2019-04-20T13:09:38.796Z,2.85
2019-04-20T13:10:44.476Z,3.12
2019-04-20T13:12:01.132Z,2.98
2019-04-20T13:13:14.358Z,2.90
2019-04-20T13:15:32.131Z,2.60
2019-04-20T13:16:36.615Z,2.80
2019-04-20T13:17:40.040Z,2.87
2019-04-20T13:18:49.142Z,2.72
2019-04-20T13:19:53.257Z,3.12
2019-04-20T13:20:58.062Z,3.17
2019-04-20T13:22:01.119Z,2.90
2019-04-20T13:23:05.553Z,3.30
2019-04-20T13:24:09.312Z,2.85
2019-04-20T13:25:12.784Z,2.55
2019-04-20T13:26:15.809Z,2.47
2019-04-20T13:27:20.887Z,2.50
2019-04-20T13:28:23.641Z,3.37
2019-04-20T13:29:26.855Z,3.30
2019-04-20T13:30:30.085Z,2.83
2019-04-20T13:31:33.787Z,2.33
2019-04-20T13:32:38.073Z,2.75
2019-04-20T13:33:43.137Z,2.22
2019-04-20T13:34:46.620Z,3.00
2019-04-20T13:35:50.401Z,2.20
2019-04-20T13:36:53.001Z,2.70
2019-04-20T13:37:56.205Z,3.10
2019-04-20T13:38:59.649Z,2.47
2019-04-20T13:40:03.062Z,2.42
2019-04-20T13:41:06.262Z,2.52
2019-04-20T13:42:16.943Z,2.65
2019-04-20T13:43:14.737Z,3.20
2019-04-20T13:44:18.011Z,2.98
2019-04-20T13:45:21.392Z,2.85
2019-04-20T13:46:24.956Z,2.52
2019-04-20T13:47:28.723Z,2.90
2019-04-20T13:48:31.337Z,2.80
2019-04-20T13:49:33.954Z,2.80
2019-04-20T13:50:36.473Z,2.98
2019-04-20T13:51:39.244Z,3.35
2019-04-20T13:52:42.659Z,2.87
2019-04-20T13:53:45.659Z,2.77
2019-04-20T13:54:48.479Z,2.15
2019-04-20T13:55:52.422Z,2.52
2019-04-20T13:56:55.928Z,2.72
2019-04-20T13:58:05.463Z,2.80
2019-04-20T13:59:19.629Z,2.72
2019-04-20T14:00:52.495Z,2.83
2019-04-20T14:02:04.623Z,2.42
2019-04-20T14:03:08.999Z,2.83
2019-04-20T14:04:17.310Z,2.83
2019-04-20T14:05:30.776Z,3.33
2019-04-20T14:06:33.684Z,2.87
2019-04-20T14:07:37.547Z,2.85
2019-04-20T14:08:41.224Z,2.60
2019-04-20T14:09:44.045Z,3.12
2019-04-20T14:10:47.298Z,2.75
2019-04-20T14:11:53.620Z,2.98
2019-04-20T14:13:03.051Z,3.50
2019-04-20T14:14:03.639Z,3.25
2019-04-20T14:15:07.266Z,2.20
2019-04-20T14:16:11.244Z,3.37
2019-04-20T14:17:15.032Z,3.50
2019-04-20T14:18:17.763Z,2.77
2019-04-20T14:19:21.016Z,3.20
2019-04-20T14:20:24.396Z,3.20
2019-04-20T14:21:28.314Z,2.37
2019-04-20T14:22:31.353Z,3.08
2019-04-20T14:23:34.907Z,3.05
2019-04-20T14:24:39.093Z,2.87
2019-04-20T14:25:42.928Z,2.85
2019-04-20T14:26:45.876Z,3.22
2019-04-20T14:27:49.023Z,3.40
2019-04-20T14:28:51.622Z,2.98
2019-04-20T14:29:55.088Z,3.75
2019-04-20T14:30:58.205Z,11.90
2019-04-20T14:32:03.533Z,8.63
2019-04-20T14:33:05.567Z,4.85
2019-04-20T14:34:08.825Z,3.15
2019-04-20T14:35:11.936Z,3.12
2019-04-20T14:36:14.899Z,3.08
2019-04-20T14:37:17.684Z,3.17
2019-04-20T14:38:22.534Z,3.10
2019-04-20T14:39:25.421Z,2.77
2019-04-20T14:40:28.371Z,2.77
2019-04-20T14:41:31.426Z,3.00
2019-04-20T14:42:39.471Z,2.98
2019-04-20T14:43:39.846Z,2.80
2019-04-20T14:44:43.746Z,2.77
2019-04-20T14:45:47.095Z,3.10
2019-04-20T14:46:49.824Z,2.90
2019-04-20T14:47:53.952Z,2.60
2019-04-20T14:48:56.840Z,2.83
2019-04-20T14:50:01.623Z,2.75
2019-04-20T14:51:04.109Z,2.83
2019-04-20T14:52:08.068Z,2.52
2019-04-20T14:53:11.539Z,2.75
2019-04-20T14:54:14.381Z,2.87
2019-04-20T14:55:18.974Z,3.10
2019-04-20T14:56:23.037Z,3.08
2019-04-20T14:57:27.533Z,2.60
2019-04-20T14:58:47.143Z,2.55
2019-04-20T14:59:59.277Z,2.67
2019-04-20T15:01:06.763Z,3.35
2019-04-20T15:02:12.716Z,2.67
2019-04-20T15:03:36.754Z,2.72